Time;durP1;ratioP1;P1;durP2;ratioP2;P2;SDS_P1;SDS_P2;PMS_P1;PMS_P2;Temp;Humidity;BMP_temperature;BMP_pressure;BME280_temperature;BME280_humidity;BME280_pressure;Samples;Min_cycle;Max_cycle;Signal;HPM_P1;HPM_P2
2020/12/14 00:00:00;;;;;;;6.13;4.73;;;12.20;46.00;;;;;;5075790;28;20553;-85
2020/12/14 00:02:28;;;;;;;4.60;3.83;;;12.30;46.10;;;;;;5076968;28;20435;-85
2020/12/14 00:04:55;;;;;;;5.23;4.07;;;12.30;45.90;;;;;;5076269;28;20485;-85
2020/12/14 00:07:21;;;;;;;7.57;3.60;;;12.40;46.80;;;;;;5076255;28;20508;-85
2020/12/14 00:09:48;;;;;;;4.90;4.20;;;12.30;44.70;;;;;;5075625;28;20468;-85
2020/12/14 00:12:14;;;;;;;6.70;5.27;;;12.00;44.40;;;;;;5075707;28;20451;-85
2020/12/14 00:14:41;;;;;;;7.70;3.80;;;11.60;43.70;;;;;;5077783;28;20445;-84
2020/12/14 00:17:08;;;;;;;5.03;4.23;;;11.30;45.90;;;;;;5077917;28;20471;-84
2020/12/14 00:19:35;;;;;;;5.53;4.67;;;10.90;45.50;;;;;;5078691;28;20538;-85
2020/12/14 00:22:01;;;;;;;5.67;5.27;;;11.10;48.00;;;;;;5078367;28;20432;-85
2020/12/14 00:24:28;;;;;;;7.37;4.77;;;11.30;44.70;;;;;;5078633;28;20437;-84
2020/12/14 00:26:54;;;;;;;5.07;4.27;;;11.10;45.70;;;;;;5077929;28;20484;-84
2020/12/14 00:29:21;;;;;;;6.47;5.37;;;10.90;47.00;;;;;;5078161;28;20455;-85
2020/12/14 00:31:51;;;;;;;7.20;4.87;;;10.80;44.60;;;;;;5078296;28;20663;-84
2020/12/14 00:34:18;;;;;;;4.70;4.37;;;10.90;47.70;;;;;;5078578;28;20456;-84
2020/12/14 00:36:45;;;;;;;5.57;4.47;;;11.00;48.00;;;;;;5079341;28;20439;-84
2020/12/14 00:39:11;;;;;;;6.57;5.10;;;11.10;47.80;;;;;;5080130;28;20507;-85
2020/12/14 00:41:38;;;;;;;5.97;4.83;;;11.00;46.90;;;;;;5088822;28;20450;-84
2020/12/14 00:44:05;;;;;;;10.07;6.97;;;11.00;45.60;;;;;;5094708;28;20455;-84
2020/12/14 00:46:31;;;;;;;5.20;4.60;;;11.10;46.10;;;;;;5094087;28;20443;-85
2020/12/14 00:48:58;;;;;;;7.00;5.50;;;11.20;46.70;;;;;;5088164;28;20439;-85
2020/12/14 00:51:29;;;;;;;6.50;5.10;;;11.10;45.10;;;;;;5085045;28;20443;-84
2020/12/14 00:53:57;;;;;;;5.60;4.40;;;10.90;46.40;;;;;;5095776;28;20448;-84
2020/12/14 00:56:24;;;;;;;7.57;6.00;;;11.00;47.10;;;;;;5095656;28;20436;-85
2020/12/14 00:58:50;;;;;;;8.97;5.83;;;11.00;47.00;;;;;;5093940;28;20473;-85
2020/12/14 01:01:18;;;;;;;7.20;5.37;;;11.10;46.80;;;;;;5086889;28;20842;-85
2020/12/14 01:03:45;;;;;;;7.73;5.20;;;11.10;46.90;;;;;;5073775;28;20483;-85
2020/12/14 01:06:12;;;;;;;7.77;5.30;;;11.30;47.40;;;;;;5074316;28;20455;-84
2020/12/14 01:08:41;;;;;;;8.77;6.30;;;11.40;46.50;;;;;;5074272;28;20533;-84
2020/12/14 01:11:08;;;;;;;10.17;5.33;;;11.40;44.40;;;;;;5073533;28;20503;-84
2020/12/14 01:13:34;;;;;;;9.63;6.33;;;11.20;46.60;;;;;;5073464;28;20439;-85
2020/12/14 01:16:01;;;;;;;5.13;4.33;;;11.00;46.10;;;;;;5074370;28;20530;-85
2020/12/14 01:18:27;;;;;;;6.90;5.30;;;11.10;47.60;;;;;;5073837;28;20849;-85
2020/12/14 01:20:54;;;;;;;6.63;5.70;;;11.20;46.20;;;;;;5072911;28;21010;-84
2020/12/14 01:23:20;;;;;;;7.00;4.80;;;11.00;46.20;;;;;;5073135;28;20454;-85
2020/12/14 01:25:47;;;;;;;7.03;5.03;;;10.80;45.80;;;;;;5073509;28;20526;-84
2020/12/14 01:28:14;;;;;;;7.23;6.13;;;10.80;47.00;;;;;;5073794;28;20513;-84
2020/12/14 01:30:40;;;;;;;9.37;4.97;;;10.70;45.60;;;;;;5073867;28;20542;-84
2020/12/14 01:33:07;;;;;;;8.17;5.70;;;10.20;47.70;;;;;;5073706;28;20478;-85
2020/12/14 01:35:33;;;;;;;5.50;4.60;;;10.40;47.90;;;;;;5073426;28;20451;-84
2020/12/14 01:38:00;;;;;;;7.83;4.40;;;10.80;48.30;;;;;;5073398;28;20447;-84
2020/12/14 01:40:26;;;;;;;5.80;4.23;;;10.70;47.50;;;;;;5073035;28;20483;-84
2020/12/14 01:42:54;;;;;;;7.17;5.20;;;10.70;48.40;;;;;;5073515;28;20493;-84
2020/12/14 01:45:20;;;;;;;4.90;3.97;;;10.90;47.60;;;;;;5075461;28;20833;-85
2020/12/14 01:47:49;;;;;;;5.10;4.23;;;11.20;47.60;;;;;;5077079;28;20813;-85
2020/12/14 01:50:17;;;;;;;6.37;4.40;;;11.20;47.70;;;;;;5076795;28;20504;-85
2020/12/14 01:52:45;;;;;;;8.93;4.50;;;11.30;45.40;;;;;;5076681;28;20462;-85
2020/12/14 01:55:14;;;;;;;4.90;3.80;;;11.00;46.40;;;;;;5076572;28;20471;-85
2020/12/14 01:57:41;;;;;;;4.53;4.10;;;11.10;46.80;;;;;;5076609;28;20447;-85
2020/12/14 02:00:10;;;;;;;7.20;5.60;;;11.10;47.10;;;;;;5076075;28;20483;-85
2020/12/14 02:02:37;;;;;;;4.57;3.83;;;10.90;44.00;;;;;;5076449;28;20512;-85
2020/12/14 02:05:06;;;;;;;5.50;4.70;;;10.80;46.20;;;;;;5078733;28;20447;-85
2020/12/14 02:07:33;;;;;;;5.70;4.70;;;10.90;46.30;;;;;;5076391;28;20483;-84
2020/12/14 02:10:00;;;;;;;5.10;4.40;;;10.90;45.50;;;;;;5075935;28;20505;-85
2020/12/14 02:12:28;;;;;;;3.50;3.37;;;10.80;47.10;;;;;;5076252;28;20972;-85
2020/12/14 02:14:57;;;;;;;4.70;3.60;;;11.00;47.30;;;;;;5076900;28;20517;-85
2020/12/14 02:17:26;;;;;;;7.80;4.70;;;11.20;47.20;;;;;;5076498;28;20439;-84
2020/12/14 02:19:54;;;;;;;12.00;8.00;;;11.30;46.70;;;;;;5076719;28;20497;-85
2020/12/14 02:22:21;;;;;;;5.93;4.57;;;11.20;46.00;;;;;;5076138;28;20454;-85
2020/12/14 02:24:55;;;;;;;8.03;5.87;;;10.90;46.10;;;;;;5076305;28;20447;-85
2020/12/14 02:27:23;;;;;;;7.80;5.20;;;10.50;44.00;;;;;;5076999;28;20467;-84
2020/12/14 02:29:49;;;;;;;7.40;5.23;;;10.30;45.60;;;;;;5076074;28;20467;-85
2020/12/14 02:32:17;;;;;;;9.07;5.40;;;10.20;46.80;;;;;;5076100;28;20769;-84
2020/12/14 02:34:44;;;;;;;13.10;7.20;;;10.20;47.40;;;;;;5077316;28;20436;-84
2020/12/14 02:37:13;;;;;;;12.80;8.80;;;10.30;45.50;;;;;;5078052;28;20440;-84
2020/12/14 02:39:40;;;;;;;10.37;7.47;;;10.30;46.20;;;;;;5077017;28;20517;-84
2020/12/14 02:42:09;;;;;;;11.07;6.40;;;10.00;48.30;;;;;;5076881;28;20963;-84
2020/12/14 02:44:36;;;;;;;9.70;7.20;;;9.50;47.00;;;;;;5077250;28;20439;-84
2020/12/14 02:47:03;;;;;;;10.40;7.90;;;9.30;49.30;;;;;;5086297;28;20475;-84
2020/12/14 02:49:30;;;;;;;12.57;9.30;;;9.50;48.30;;;;;;5096168;28;20498;-85
2020/12/14 02:51:56;;;;;;;12.63;9.17;;;9.40;48.10;;;;;;5095832;28;20447;-84
2020/12/14 02:54:23;;;;;;;10.60;7.80;;;9.30;47.50;;;;;;5095363;28;20447;-84
2020/12/14 02:56:49;;;;;;;9.20;7.30;;;9.40;49.30;;;;;;5094633;28;20521;-85
2020/12/14 02:59:18;;;;;;;8.80;6.60;;;9.40;47.50;;;;;;5094649;28;20482;-85
2020/12/14 03:01:45;;;;;;;8.83;5.77;;;9.40;49.60;;;;;;5076779;28;20431;-85
2020/12/14 03:04:11;;;;;;;6.67;5.13;;;9.50;48.80;;;;;;5076010;28;20860;-84
2020/12/14 03:06:38;;;;;;;9.93;6.73;;;9.60;48.70;;;;;;5075890;28;20470;-84
2020/12/14 03:09:05;;;;;;;10.10;7.57;;;9.50;46.50;;;;;;5075535;28;20521;-84
2020/12/14 03:11:31;;;;;;;11.43;7.33;;;9.30;47.70;;;;;;5074966;28;20473;-84
2020/12/14 03:13:58;;;;;;;15.60;10.13;;;9.00;49.00;;;;;;5075297;28;20435;-85
2020/12/14 03:16:26;;;;;;;11.30;8.03;;;9.00;49.10;;;;;;5075268;28;20863;-85
2020/12/14 03:18:52;;;;;;;8.97;6.87;;;9.20;49.80;;;;;;5074984;28;20436;-84
2020/12/14 03:21:19;;;;;;;9.80;7.53;;;9.50;50.10;;;;;;5075848;28;20804;-84
2020/12/14 03:23:46;;;;;;;8.13;6.53;;;9.70;48.40;;;;;;5076472;28;20448;-85
2020/12/14 03:26:15;;;;;;;9.07;6.60;;;10.00;48.00;;;;;;5077707;28;20495;-85
2020/12/14 03:28:42;;;;;;;7.30;5.37;;;10.30;47.80;;;;;;5081703;28;20478;-83
2020/12/14 03:31:09;;;;;;;7.53;5.37;;;10.50;48.30;;;;;;5075924;28;20506;-84
2020/12/14 03:33:36;;;;;;;7.73;5.50;;;10.70;47.40;;;;;;5076251;28;20443;-84
2020/12/14 03:36:03;;;;;;;5.77;4.50;;;10.90;47.60;;;;;;5075524;28;20459;-84
2020/12/14 03:38:29;;;;;;;5.43;4.13;;;11.20;47.30;;;;;;5074809;28;20500;-84
2020/12/14 03:40:56;;;;;;;7.77;4.57;;;11.40;47.10;;;;;;5074715;28;20509;-85
2020/12/14 03:43:22;;;;;;;5.10;4.20;;;11.60;47.30;;;;;;5074846;28;20815;-85
2020/12/14 03:45:49;;;;;;;5.20;4.00;;;11.80;46.70;;;;;;5075714;28;20439;-85
2020/12/14 03:48:17;;;;;;;6.70;5.40;;;12.00;46.70;;;;;;5076588;28;21013;-84
2020/12/14 03:50:46;;;;;;;7.20;5.50;;;11.80;44.20;;;;;;5075014;28;20470;-85
2020/12/14 03:53:13;;;;;;;6.20;5.50;;;11.40;43.80;;;;;;5075228;28;20471;-85
2020/12/14 03:55:40;;;;;;;6.70;4.87;;;10.80;44.60;;;;;;5074504;28;20432;-84
2020/12/14 03:58:07;;;;;;;7.53;5.40;;;10.50;45.10;;;;;;5074928;28;20531;-84
2020/12/14 04:00:33;;;;;;;6.37;4.90;;;9.90;46.10;;;;;;5074740;28;20475;-85
2020/12/14 04:03:03;;;;;;;6.80;5.20;;;9.30;48.20;;;;;;5074764;28;20431;-85
2020/12/14 04:05:30;;;;;;;6.33;5.30;;;8.80;49.10;;;;;;5075427;28;20949;-85
2020/12/14 04:07:57;;;;;;;6.17;5.17;;;8.20;48.30;;;;;;5079498;28;20479;-85
2020/12/14 04:10:24;;;;;;;6.43;4.77;;;8.40;49.90;;;;;;5077811;28;20463;-85
2020/12/14 04:12:51;;;;;;;7.07;4.80;;;8.90;49.60;;;;;;5075463;28;20928;-85
2020/12/14 04:15:17;;;;;;;6.57;4.47;;;9.50;49.50;;;;;;5075037;28;20458;-85
2020/12/14 04:17:44;;;;;;;8.20;5.70;;;10.00;49.30;;;;;;5075316;28;20434;-85
2020/12/14 04:20:10;;;;;;;6.20;5.30;;;9.60;46.70;;;;;;5075446;28;20524;-84
2020/12/14 04:22:37;;;;;;;5.70;5.00;;;8.90;44.10;;;;;;5074363;28;20849;-84
2020/12/14 04:25:04;;;;;;;6.80;5.13;;;8.30;48.20;;;;;;5074973;28;20975;-84
2020/12/14 04:27:31;;;;;;;7.07;4.90;;;8.30;49.00;;;;;;5075652;28;20528;-84
2020/12/14 04:29:57;;;;;;;6.70;5.30;;;8.60;51.60;;;;;;5075842;28;20467;-85
2020/12/14 04:32:24;;;;;;;7.27;5.43;;;9.00;50.40;;;;;;5074858;28;20485;-85
2020/12/14 04:34:50;;;;;;;7.90;6.17;;;9.40;48.90;;;;;;5074702;28;20530;-85
2020/12/14 04:37:17;;;;;;;5.20;4.67;;;9.90;50.40;;;;;;5073933;28;20870;-85
2020/12/14 04:39:43;;;;;;;5.00;4.20;;;10.40;48.40;;;;;;5074318;28;20964;-85
2020/12/14 04:42:11;;;;;;;5.60;4.67;;;10.60;47.10;;;;;;5074308;28;20440;-85
2020/12/14 04:44:38;;;;;;;6.20;5.23;;;10.30;45.80;;;;;;5074897;28;20446;-85
2020/12/14 04:47:05;;;;;;;5.63;4.77;;;10.20;43.90;;;;;;5074724;28;20479;-85
2020/12/14 04:49:33;;;;;;;6.73;5.37;;;10.00;48.00;;;;;;5074212;28;20883;-85
2020/12/14 04:52:02;;;;;;;8.47;5.70;;;10.00;45.10;;;;;;5080899;28;20454;-85
2020/12/14 04:54:30;;;;;;;7.23;5.83;;;9.30;46.40;;;;;;5076685;28;20435;-84
2020/12/14 04:57:04;;;;;;;5.53;4.20;;;8.90;45.60;;;;;;5075685;28;20475;-83
2020/12/14 04:59:32;;;;;;;6.90;4.90;;;8.60;49.30;;;;;;5075177;28;20547;-85
2020/12/14 05:02:07;;;;;;;8.53;5.67;;;9.00;49.60;;;;;;5075466;28;20469;-84
2020/12/14 05:04:33;;;;;;;8.20;5.70;;;8.80;46.60;;;;;;5075003;28;20526;-84
2020/12/14 05:07:00;;;;;;;5.87;5.30;;;8.90;47.90;;;;;;5075200;28;20496;-85
2020/12/14 05:09:27;;;;;;;10.20;6.90;;;9.00;49.70;;;;;;5074339;28;20456;-85
2020/12/14 05:11:53;;;;;;;6.40;5.33;;;9.60;47.30;;;;;;5074330;28;20443;-84
2020/12/14 05:14:21;;;;;;;8.87;5.87;;;9.20;48.70;;;;;;5074850;28;20452;-84
2020/12/14 05:16:49;;;;;;;9.20;5.43;;;8.10;48.10;;;;;;5074915;28;20530;-85
2020/12/14 05:19:26;;;;;;;8.77;5.90;;;8.10;48.90;;;;;;5075771;28;20464;-85
2020/12/14 05:21:54;;;;;;;7.03;5.60;;;7.70;50.90;;;;;;5077885;28;20779;-85
2020/12/14 05:24:25;;;;;;;7.10;5.37;;;8.40;49.20;;;;;;5079082;28;20987;-84
2020/12/14 05:26:53;;;;;;;4.93;4.53;;;9.10;49.80;;;;;;5077785;28;20435;-86
2020/12/14 05:29:23;;;;;;;9.83;6.10;;;9.20;49.40;;;;;;5078408;28;20553;-86
2020/12/14 05:32:06;;;;;;;5.93;5.20;;;9.50;50.00;;;;;;5079387;28;20424;-86
2020/12/14 05:34:34;;;;;;;7.57;5.30;;;9.90;48.80;;;;;;5079043;28;20439;-86
2020/12/14 05:37:04;;;;;;;5.40;5.10;;;10.30;48.40;;;;;;5080911;28;20864;-86
2020/12/14 05:39:31;;;;;;;7.93;5.63;;;10.50;46.70;;;;;;5087126;28;20546;-86
2020/12/14 05:42:09;;;;;;;4.57;4.33;;;10.50;46.70;;;;;;5094038;28;20439;-86
2020/12/14 05:44:35;;;;;;;6.20;5.17;;;10.70;46.80;;;;;;5093077;28;20414;-86
2020/12/14 05:47:02;;;;;;;5.93;5.03;;;10.80;45.00;;;;;;5090818;28;20443;-86
2020/12/14 05:49:30;;;;;;;6.00;4.83;;;10.90;46.20;;;;;;5091406;28;20471;-86
2020/12/14 05:52:01;;;;;;;6.80;5.37;;;11.00;46.50;;;;;;5091820;28;20447;-86
2020/12/14 05:54:36;;;;;;;5.87;5.30;;;11.20;46.70;;;;;;5087918;28;20459;-86
2020/12/14 05:57:04;;;;;;;7.00;5.27;;;11.10;44.30;;;;;;5082862;28;20439;-86
2020/12/14 05:59:34;;;;;;;7.53;5.90;;;10.70;40.70;;;;;;5096617;28;20459;-86
2020/12/14 06:02:03;;;;;;;6.50;5.47;;;10.40;42.00;;;;;;5095459;28;20440;-86
2020/12/14 06:04:33;;;;;;;6.83;5.77;;;10.30;45.30;;;;;;5095667;28;20416;-86
2020/12/14 06:07:04;;;;;;;5.97;5.20;;;10.20;45.00;;;;;;5094164;28;20497;-86
2020/12/14 06:09:35;;;;;;;6.13;4.23;;;10.20;46.70;;;;;;5098813;28;20487;-86
2020/12/14 06:12:04;;;;;;;5.87;5.37;;;10.10;46.90;;;;;;5100102;28;20485;-88
2020/12/14 06:14:38;;;;;;;5.63;4.80;;;10.10;46.00;;;;;;5100141;28;20473;-85
2020/12/14 06:17:10;;;;;;;5.40;4.80;;;10.00;47.20;;;;;;5099117;28;20445;-86
2020/12/14 06:19:37;;;;;;;5.07;4.27;;;10.30;47.30;;;;;;5078614;28;20525;-86
2020/12/14 06:22:08;;;;;;;7.77;5.90;;;10.60;47.40;;;;;;5076758;28;20487;-86
2020/12/14 06:24:35;;;;;;;9.07;6.67;;;10.60;46.80;;;;;;5075985;28;20439;-86
2020/12/14 06:27:02;;;;;;;8.77;6.30;;;10.20;42.70;;;;;;5076218;28;20470;-86
2020/12/14 06:29:33;;;;;;;8.80;6.47;;;9.30;44.20;;;;;;5077045;28;20483;-86
2020/12/14 06:31:59;;;;;;;7.17;5.50;;;8.10;47.50;;;;;;5077506;28;20416;-84
2020/12/14 06:34:45;;;;;;;6.63;5.90;;;7.90;50.30;;;;;;5078908;28;20447;-85
2020/12/14 06:37:19;;;;;;;8.70;6.07;;;7.80;49.20;;;;;;5076828;28;20423;-85
2020/12/14 06:39:47;;;;;;;8.07;5.70;;;7.60;49.50;;;;;;5076359;28;20471;-86
2020/12/14 06:42:24;;;;;;;6.80;6.10;;;7.20;49.30;;;;;;5076867;28;20471;-86
2020/12/14 06:45:05;;;;;;;8.27;6.67;;;6.70;47.60;;;;;;5076656;28;20477;-86
2020/12/14 06:47:41;;;;;;;6.23;5.57;;;5.30;51.10;;;;;;5076512;28;20426;-84
2020/12/14 06:50:37;;;;;;;7.07;5.50;;;5.20;54.80;;;;;;5076715;28;20981;-84
2020/12/14 06:53:05;;;;;;;7.90;6.00;;;6.00;54.00;;;;;;5077195;28;20441;-86
2020/12/14 06:55:48;;;;;;;9.20;6.73;;;6.20;54.20;;;;;;5076098;28;20458;-85
2020/12/14 06:58:35;;;;;;;10.70;7.10;;;6.30;50.40;;;;;;5076320;28;20479;-85
2020/12/14 07:01:02;;;;;;;12.07;7.97;;;6.10;53.50;;;;;;5075764;28;20815;-85
2020/12/14 07:03:36;;;;;;;14.70;8.73;;;6.00;51.90;;;;;;5076749;28;20464;-87
2020/12/14 07:06:05;;;;;;;11.80;7.90;;;5.80;49.80;;;;;;5077114;28;20776;-88
2020/12/14 07:08:38;;;;;;;11.53;8.27;;;5.90;50.10;;;;;;5077365;28;20482;-88
2020/12/14 07:11:16;;;;;;;12.40;8.17;;;6.40;49.50;;;;;;5076539;28;20477;-88
2020/12/14 07:13:44;;;;;;;16.37;7.63;;;6.20;48.70;;;;;;5077452;28;20444;-88
2020/12/14 07:16:11;;;;;;;10.03;7.10;;;6.80;49.90;;;;;;5076866;28;20461;-88
2020/12/14 07:18:39;;;;;;;16.33;8.40;;;6.20;50.60;;;;;;5076965;28;20472;-88
2020/12/14 07:21:12;;;;;;;8.60;7.10;;;6.60;49.80;;;;;;5077008;28;20491;-88
2020/12/14 07:23:40;;;;;;;10.77;7.77;;;6.40;50.50;;;;;;5076875;28;20453;-88
2020/12/14 07:26:08;;;;;;;11.20;8.33;;;6.50;50.50;;;;;;5077549;28;20895;-88
2020/12/14 07:28:39;;;;;;;16.57;10.20;;;6.70;48.90;;;;;;5076598;28;20544;-88
2020/12/14 07:31:08;;;;;;;11.93;8.57;;;6.40;49.00;;;;;;5078332;28;20454;-88
2020/12/14 07:33:35;;;;;;;13.30;8.90;;;6.30;50.40;;;;;;5077144;28;20778;-88
2020/12/14 07:36:04;;;;;;;13.93;8.07;;;6.40;49.00;;;;;;5077405;28;20451;-89
2020/12/14 07:38:31;;;;;;;11.30;7.63;;;6.20;51.50;;;;;;5075353;28;20488;-88
2020/12/14 07:41:05;;;;;;;11.60;8.23;;;6.60;49.30;;;;;;5075012;28;20978;-88
2020/12/14 07:43:40;;;;;;;12.50;8.07;;;6.40;49.30;;;;;;5075189;28;20422;-88
2020/12/14 07:46:23;;;;;;;16.33;8.77;;;6.30;49.20;;;;;;5075387;28;20408;-88
2020/12/14 07:48:58;;;;;;;13.97;9.30;;;6.30;49.10;;;;;;5075796;28;20628;-89
2020/12/14 07:51:25;;;;;;;15.37;9.50;;;6.10;50.30;;;;;;5076155;28;20478;-88
2020/12/14 07:53:53;;;;;;;16.70;10.20;;;6.60;51.40;;;;;;5076048;28;20448;-88
2020/12/14 07:56:20;;;;;;;10.43;7.80;;;7.10;51.00;;;;;;5075394;28;20453;-88
2020/12/14 07:58:48;;;;;;;12.63;8.20;;;7.30;50.90;;;;;;5075258;28;20499;-89
2020/12/14 08:01:17;;;;;;;13.43;9.97;;;7.70;51.80;;;;;;5076980;28;20860;-89
2020/12/14 08:03:43;;;;;;;14.07;8.17;;;7.50;47.40;;;;;;5098370;28;20438;-89
2020/12/14 08:06:17;;;;;;;14.83;9.90;;;7.70;50.00;;;;;;5098311;28;20443;-89
2020/12/14 08:08:48;;;;;;;17.33;10.33;;;7.60;48.50;;;;;;5097139;28;20510;-88
2020/12/14 08:11:18;;;;;;;15.80;9.53;;;7.80;49.60;;;;;;5097537;28;20464;-89
2020/12/14 08:13:46;;;;;;;15.40;9.77;;;8.10;48.70;;;;;;5097694;28;20440;-90
2020/12/14 08:16:17;;;;;;;14.07;9.40;;;8.00;47.60;;;;;;5081157;28;20430;-89
2020/12/14 08:18:45;;;;;;;11.30;7.30;;;7.60;48.50;;;;;;5075488;28;20842;-88
2020/12/14 08:21:22;;;;;;;12.20;7.93;;;8.00;49.50;;;;;;5075299;28;20495;-88
2020/12/14 08:23:49;;;;;;;12.40;8.00;;;8.40;50.50;;;;;;5075248;28;20447;-88
2020/12/14 08:26:23;;;;;;;12.00;7.43;;;8.90;49.70;;;;;;5075707;28;20493;-88
2020/12/14 08:28:50;;;;;;;11.60;7.20;;;9.10;48.50;;;;;;5076345;28;20459;-89
2020/12/14 08:31:17;;;;;;;10.40;8.30;;;9.30;47.60;;;;;;5075127;28;21014;-89
2020/12/14 08:33:50;;;;;;;13.03;8.40;;;9.10;46.40;;;;;;5075151;28;20515;-88
2020/12/14 08:36:17;;;;;;;14.27;9.33;;;8.90;48.00;;;;;;5075928;28;20501;-89
2020/12/14 08:38:45;;;;;;;11.07;8.10;;;8.60;47.70;;;;;;5076543;28;20443;-89
2020/12/14 08:41:13;;;;;;;12.90;7.87;;;8.90;48.10;;;;;;5085951;28;20459;-90
2020/12/14 08:43:40;;;;;;;14.20;8.20;;;9.10;47.30;;;;;;5091655;28;20428;-89
2020/12/14 08:46:09;;;;;;;13.27;7.87;;;9.00;48.60;;;;;;5087530;28;20447;-89
2020/12/14 08:48:45;;;;;;;7.93;6.50;;;9.40;49.10;;;;;;5086992;28;20581;-89
2020/12/14 08:51:14;;;;;;;12.53;8.40;;;9.60;48.40;;;;;;5077699;28;20459;-89
2020/12/14 08:53:41;;;;;;;11.37;7.83;;;9.80;47.60;;;;;;5081124;28;20480;-89
2020/12/14 08:56:10;;;;;;;12.77;8.20;;;9.60;45.10;;;;;;5088092;28;20439;-89
2020/12/14 08:58:54;;;;;;;10.47;7.57;;;9.50;48.50;;;;;;5080246;28;20453;-89
2020/12/14 09:01:21;;;;;;;11.90;8.53;;;9.40;46.50;;;;;;5079044;28;20479;-90
2020/12/14 09:03:49;;;;;;;14.57;8.60;;;9.30;46.50;;;;;;5084522;28;20455;-89
2020/12/14 09:06:24;;;;;;;12.37;7.40;;;9.30;49.10;;;;;;5087399;28;20442;-89
2020/12/14 09:09:02;;;;;;;13.47;7.90;;;9.30;47.90;;;;;;5081446;28;20459;-89
2020/12/14 09:11:29;;;;;;;9.10;7.30;;;9.80;47.80;;;;;;5083799;28;20438;-89
2020/12/14 09:13:58;;;;;;;9.80;7.80;;;9.90;45.20;;;;;;5084888;28;20427;-89
2020/12/14 09:16:25;;;;;;;11.77;8.10;;;9.80;45.70;;;;;;5079155;28;20477;-89
2020/12/14 09:18:51;;;;;;;13.00;7.70;;;9.80;47.40;;;;;;5079009;28;20458;-89
2020/12/14 09:21:18;;;;;;;11.10;7.63;;;10.00;47.40;;;;;;5079065;28;20572;-89
2020/12/14 09:23:45;;;;;;;13.87;9.00;;;10.10;46.00;;;;;;5083436;28;20440;-89
2020/12/14 09:26:12;;;;;;;10.00;7.40;;;9.40;46.50;;;;;;5093007;28;20457;-89
2020/12/14 09:28:38;;;;;;;10.73;8.10;;;9.70;47.90;;;;;;5087491;28;20514;-89
2020/12/14 09:31:09;;;;;;;14.43;8.43;;;10.10;47.00;;;;;;5077772;28;20481;-90
2020/12/14 09:33:36;;;;;;;11.13;7.20;;;10.20;45.40;;;;;;5077577;28;20416;-89
2020/12/14 09:36:02;;;;;;;16.73;10.03;;;10.00;47.10;;;;;;5077147;28;20435;-89
2020/12/14 09:38:29;;;;;;;13.10;8.70;;;9.60;45.10;;;;;;5077141;28;20440;-89
2020/12/14 09:40:56;;;;;;;16.40;10.00;;;9.20;46.30;;;;;;5077395;28;21053;-89
2020/12/14 09:43:25;;;;;;;13.07;8.50;;;9.40;46.80;;;;;;5077806;28;20851;-89
2020/12/14 09:45:52;;;;;;;11.67;8.10;;;10.00;48.50;;;;;;5077506;28;20485;-89
2020/12/14 09:48:19;;;;;;;12.97;9.30;;;10.10;46.00;;;;;;5077868;28;20486;-89
2020/12/14 09:51:03;;;;;;;11.50;7.83;;;10.30;46.80;;;;;;5078208;28;20463;-89
2020/12/14 09:53:29;;;;;;;15.53;9.80;;;10.70;46.20;;;;;;5078849;28;20419;-89
2020/12/14 09:55:55;;;;;;;13.20;9.20;;;10.90;44.80;;;;;;5078155;28;20489;-89
2020/12/14 09:58:22;;;;;;;13.57;9.37;;;11.00;44.80;;;;;;5078540;28;20442;-89
2020/12/14 10:00:48;;;;;;;12.10;8.67;;;11.00;43.70;;;;;;5079774;28;20520;-89
2020/12/14 10:03:15;;;;;;;16.40;9.40;;;11.20;45.70;;;;;;5078629;28;20463;-89
2020/12/14 10:05:47;;;;;;;14.33;9.30;;;11.20;43.70;;;;;;5080396;28;20443;-89
2020/12/14 10:08:14;;;;;;;15.13;8.57;;;10.90;44.80;;;;;;5078521;28;20521;-88
2020/12/14 10:10:40;;;;;;;18.23;10.40;;;11.20;44.50;;;;;;5078896;28;20470;-86
2020/12/14 10:13:07;;;;;;;12.73;8.83;;;11.00;43.70;;;;;;5077456;28;20431;-86
2020/12/14 10:15:33;;;;;;;9.93;6.93;;;10.80;43.30;;;;;;5078713;28;20526;-86
2020/12/14 10:18:00;;;;;;;10.50;6.67;;;11.60;46.70;;;;;;5077928;28;20448;-85
2020/12/14 10:20:27;;;;;;;9.00;6.93;;;12.00;45.20;;;;;;5078281;28;20475;-86
2020/12/14 10:22:55;;;;;;;12.07;8.83;;;12.20;45.60;;;;;;5078021;28;20824;-85
2020/12/14 10:25:24;;;;;;;10.50;8.30;;;12.60;44.10;;;;;;5078146;28;20447;-85
2020/12/14 10:27:50;;;;;;;8.70;6.53;;;12.70;43.70;;;;;;5087225;28;20519;-86
2020/12/14 10:30:17;;;;;;;11.07;8.00;;;12.90;44.80;;;;;;5081056;28;20499;-86
2020/12/14 10:32:44;;;;;;;11.30;8.37;;;13.00;43.60;;;;;;5077741;28;20506;-86
2020/12/14 10:35:11;;;;;;;9.67;6.67;;;13.30;43.70;;;;;;5078779;28;20848;-85
2020/12/14 10:37:38;;;;;;;11.93;8.07;;;13.60;42.80;;;;;;5079708;28;20933;-86
2020/12/14 10:40:06;;;;;;;9.87;6.97;;;13.80;42.90;;;;;;5078608;28;20961;-86
2020/12/14 10:42:33;;;;;;;10.37;6.37;;;14.00;43.00;;;;;;5080095;28;20443;-86
2020/12/14 10:45:00;;;;;;;10.00;7.13;;;14.00;42.10;;;;;;5079259;28;20470;-86
2020/12/14 10:47:27;;;;;;;9.97;6.83;;;13.90;40.60;;;;;;5080757;28;20451;-86
2020/12/14 10:49:54;;;;;;;9.30;6.17;;;13.80;40.60;;;;;;5089412;28;20820;-86
2020/12/14 10:52:20;;;;;;;8.73;6.33;;;13.60;41.80;;;;;;5081236;28;20529;-86
2020/12/14 10:54:46;;;;;;;11.30;7.30;;;13.50;41.70;;;;;;5080068;28;20448;-86
2020/12/14 10:57:14;;;;;;;15.03;6.67;;;13.50;41.60;;;;;;5079749;28;20501;-86
2020/12/14 10:59:40;;;;;;;10.70;7.53;;;13.80;42.40;;;;;;5079531;28;20474;-86
2020/12/14 11:02:07;;;;;;;7.03;5.43;;;13.90;40.20;;;;;;5079583;28;20454;-86
2020/12/14 11:04:33;;;;;;;9.60;7.17;;;13.90;41.80;;;;;;5087631;28;20436;-86
2020/12/14 11:07:00;;;;;;;7.70;6.00;;;14.00;40.70;;;;;;5087286;28;20447;-86
2020/12/14 11:09:26;;;;;;;5.53;4.67;;;13.90;40.00;;;;;;5091276;28;20498;-86
2020/12/14 11:11:54;;;;;;;8.60;6.63;;;13.80;41.60;;;;;;5080723;28;20497;-85
2020/12/14 11:14:21;;;;;;;8.03;6.40;;;14.10;41.60;;;;;;5088792;28;20438;-86
2020/12/14 11:16:47;;;;;;;10.57;6.83;;;14.30;40.90;;;;;;5094243;28;20450;-87
2020/12/14 11:19:14;;;;;;;8.47;6.10;;;14.30;40.30;;;;;;5098584;28;20474;-86
2020/12/14 11:21:40;;;;;;;11.20;6.73;;;14.30;39.40;;;;;;5098431;28;20443;-86
2020/12/14 11:24:07;;;;;;;9.53;7.33;;;14.70;41.20;;;;;;5080334;28;20447;-86
2020/12/14 11:26:34;;;;;;;10.10;7.13;;;15.00;40.00;;;;;;5096075;28;20434;-86
2020/12/14 11:29:00;;;;;;;20.73;9.73;;;15.00;39.00;;;;;;5094319;28;20540;-86
2020/12/14 11:31:28;;;;;;;12.20;8.73;;;14.50;36.60;;;;;;5083233;28;20944;-85
2020/12/14 11:33:54;;;;;;;10.10;7.93;;;13.90;37.60;;;;;;5074891;28;20454;-85
2020/12/14 11:36:28;;;;;;;12.00;8.33;;;13.50;40.10;;;;;;5074425;28;20454;-85
2020/12/14 11:38:55;;;;;;;11.17;7.77;;;13.50;39.60;;;;;;5073874;28;20510;-85
2020/12/14 11:41:22;;;;;;;12.50;8.30;;;13.70;40.00;;;;;;5074500;28;20443;-86
2020/12/14 11:43:48;;;;;;;10.60;7.03;;;13.90;38.00;;;;;;5079516;28;20442;-85
2020/12/14 11:46:15;;;;;;;12.90;7.60;;;13.40;39.40;;;;;;5075672;28;20505;-85
2020/12/14 11:48:42;;;;;;;14.93;8.30;;;13.40;38.20;;;;;;5074765;28;20478;-85
2020/12/14 11:51:09;;;;;;;12.73;7.93;;;13.10;38.10;;;;;;5074023;28;20497;-86
2020/12/14 11:53:35;;;;;;;12.30;7.93;;;12.90;38.10;;;;;;5074035;28;20447;-86
2020/12/14 11:56:02;;;;;;;6.87;5.43;;;12.70;37.90;;;;;;5074031;28;20538;-86
2020/12/14 11:58:28;;;;;;;7.70;5.47;;;13.00;42.30;;;;;;5074093;28;20475;-86
2020/12/14 12:00:56;;;;;;;9.80;5.83;;;13.80;42.70;;;;;;5075341;28;20562;-85
2020/12/14 12:03:22;;;;;;;8.60;5.77;;;14.40;41.30;;;;;;5074169;28;20482;-85
2020/12/14 12:05:49;;;;;;;12.43;7.30;;;14.80;40.50;;;;;;5073948;28;20984;-85
2020/12/14 12:08:16;;;;;;;10.13;5.80;;;14.40;36.40;;;;;;5073835;28;20574;-85
2020/12/14 12:10:42;;;;;;;16.10;6.20;;;14.50;39.80;;;;;;5078083;28;20447;-86
2020/12/14 12:13:09;;;;;;;8.43;6.20;;;14.50;39.50;;;;;;5087840;28;20439;-86
2020/12/14 12:15:36;;;;;;;8.00;5.90;;;14.20;37.90;;;;;;5075520;28;20860;-86
2020/12/14 12:18:03;;;;;;;6.30;5.20;;;14.30;39.80;;;;;;5073676;28;20451;-86
2020/12/14 12:20:29;;;;;;;9.03;5.50;;;14.70;39.70;;;;;;5073626;28;20550;-85
2020/12/14 12:22:58;;;;;;;7.03;5.10;;;15.40;40.30;;;;;;5074329;28;20456;-85
2020/12/14 12:25:25;;;;;;;9.60;6.63;;;15.20;38.20;;;;;;5074875;28;20976;-86
2020/12/14 12:27:52;;;;;;;12.77;8.00;;;15.30;37.00;;;;;;5075074;28;20504;-85
2020/12/14 12:30:18;;;;;;;6.83;5.43;;;14.90;35.50;;;;;;5075809;28;20479;-86
2020/12/14 12:32:45;;;;;;;18.47;5.30;;;15.00;39.10;;;;;;5073978;28;20436;-85
2020/12/14 12:35:11;;;;;;;8.53;6.00;;;14.80;39.80;;;;;;5073392;28;20451;-85
2020/12/14 12:37:38;;;;;;;8.07;6.17;;;15.30;40.10;;;;;;5073704;28;20494;-82
2020/12/14 12:40:08;;;;;;;9.87;7.40;;;15.50;37.80;;;;;;5072985;28;20452;-82
2020/12/14 12:42:34;;;;;;;8.43;6.10;;;15.60;36.90;;;;;;5073196;28;20778;-83
2020/12/14 12:45:01;;;;;;;7.03;5.70;;;15.30;37.80;;;;;;5073851;28;20503;-82
2020/12/14 12:47:28;;;;;;;11.73;5.33;;;15.20;37.90;;;;;;5073625;28;20435;-82
2020/12/14 12:49:54;;;;;;;13.43;6.03;;;15.50;38.40;;;;;;5073505;28;20480;-83